KRIC

Richmond International Airport

Richmond, Virginia, USA
KRIC 221120Z 2212/2312 02006KT P6SM SCT250 FM222200 18004KT P6SM BKN250 FM230900 19005KT P6SM BKN060
Issued Valid From Valid To
Jan-22 @ 11:20 UTC
(6 hours ago)
Jan-22 @ 12:00 UTC
(5 hours ago)
Jan-23 @ 12:00 UTC
(in 19 hours)
Jan-22 @ 12:00 to Jan-22 @ 22:00
KRIC 221120Z 2212/2312 02006KT P6SM SCT250
Wind Visibility Clouds
20° at 6 knots Greater than 6 miles
  • Scattered at 25,000' AGL
From Jan-22 @ 22:00 to Jan-23 @ 09:00
FM222200 18004KT P6SM BKN250
Wind Visibility Clouds
180° at 4 knots Greater than 6 miles
  • Broken at 25,000' AGL
From Jan-23 @ 09:00 to Jan-23 @ 12:00
FM230900 19005KT P6SM BKN060
Wind Visibility Clouds
190° at 5 knots Greater than 6 miles
  • Broken at 6,000' AGL
KRIC 221120Z 2212/2312 02006KT P6SM SCT250 FM222200 18004KT P6SM BKN250 FM230900 19005KT P6SM BKN060
Issued Jan-22 @ 11:20 UTC
(6 hours ago)
Valid From Jan-22 @ 12:00 UTC
(5 hours ago)
Valid To Jan-23 @ 12:00 UTC
(in 19 hours)
Jan-22 @ 12:00 - Jan-22 @ 22:00
Wind Visibility
20° at 6 knots Greater than 6 miles
Clouds
  • Scattered at 25,000' AGL
From Jan-22 @ 22:00 - Jan-23 @ 09:00
Wind Visibility
180° at 4 knots Greater than 6 miles
Clouds
  • Broken at 25,000' AGL
From Jan-23 @ 09:00 - Jan-23 @ 12:00
Wind Visibility
190° at 5 knots Greater than 6 miles
Clouds
  • Broken at 6,000' AGL